Time;durP1;ratioP1;P1;durP2;ratioP2;P2;SDS_P1;SDS_P2;PMS_P1;PMS_P2;Temp;Humidity;BMP_temperature;BMP_pressure;BME280_temperature;BME280_humidity;BME280_pressure;Samples;Min_cycle;Max_cycle;Signal;HPM_P1;HPM_P2
2024/04/24 00:02:12;;;;;;;12.05;7.75;;;5.10;99.90;;;;;;5323417;26;20079;-59
2024/04/24 00:04:38;;;;;;;17.08;9.13;;;5.10;99.90;;;;;;5318063;26;20001;-59
2024/04/24 00:07:03;;;;;;;13.68;8.52;;;5.10;99.90;;;;;;5312528;26;20078;-59
2024/04/24 00:09:29;;;;;;;16.83;9.32;;;5.10;99.90;;;;;;5317623;26;20589;-60
2024/04/24 00:11:54;;;;;;;14.10;7.90;;;5.10;99.90;;;;;;5324684;26;22500;-60
2024/04/24 00:14:21;;;;;;;13.63;7.90;;;5.10;99.90;;;;;;5314673;26;20005;-60
2024/04/24 00:16:47;;;;;;;15.98;9.52;;;5.10;99.90;;;;;;5317638;26;20009;-60
2024/04/24 00:19:12;;;;;;;13.05;8.38;;;5.00;99.90;;;;;;5316796;26;19998;-59
2024/04/24 00:21:38;;;;;;;16.52;8.43;;;5.00;99.90;;;;;;5329421;26;20067;-60
2024/04/24 00:24:03;;;;;;;15.43;8.82;;;5.00;99.90;;;;;;5334080;26;20309;-59
2024/04/24 00:26:29;;;;;;;14.30;9.27;;;5.00;99.90;;;;;;5334541;26;20460;-60
2024/04/24 00:28:54;;;;;;;14.40;8.48;;;5.00;99.90;;;;;;5309636;26;20016;-59
2024/04/24 00:31:20;;;;;;;16.35;8.95;;;5.10;99.90;;;;;;5322857;26;20009;-60
2024/04/24 00:33:46;;;;;;;15.40;9.35;;;5.10;99.90;;;;;;5317505;26;20019;-60
2024/04/24 00:36:11;;;;;;;21.63;9.82;;;5.10;99.90;;;;;;5320980;26;20013;-60
2024/04/24 00:38:37;;;;;;;15.68;9.07;;;5.10;99.90;;;;;;5314599;26;20025;-60
2024/04/24 00:41:02;;;;;;;18.63;10.98;;;5.00;99.90;;;;;;5325732;26;20076;-60
2024/04/24 00:43:28;;;;;;;16.65;9.60;;;5.10;99.90;;;;;;5333369;26;19998;-60
2024/04/24 00:45:57;;;;;;;16.20;9.68;;;5.20;99.90;;;;;;5318263;26;20023;-60
2024/04/24 00:48:25;;;;;;;16.73;10.35;;;5.20;99.90;;;;;;5326237;26;20036;-60
2024/04/24 00:50:51;;;;;;;23.55;10.70;;;5.10;99.90;;;;;;5320955;26;20001;-60
2024/04/24 00:53:17;;;;;;;21.05;10.90;;;5.20;99.90;;;;;;5326709;26;19998;-60
2024/04/24 00:55:43;;;;;;;18.50;10.18;;;5.20;99.90;;;;;;5325146;26;20011;-60
2024/04/24 00:58:09;;;;;;;18.30;11.50;;;5.20;99.90;;;;;;5327164;26;19997;-60
2024/04/24 01:00:36;;;;;;;22.35;11.50;;;5.20;99.90;;;;;;5328824;26;20008;-61
2024/04/24 01:03:03;;;;;;;17.50;9.73;;;5.20;99.90;;;;;;5327083;26;19997;-61
2024/04/24 01:05:30;;;;;;;16.13;9.77;;;5.30;99.90;;;;;;5320196;26;20444;-61
2024/04/24 01:07:56;;;;;;;18.38;10.88;;;5.30;99.90;;;;;;5326402;26;19997;-60
2024/04/24 01:10:21;;;;;;;20.02;10.45;;;5.30;99.90;;;;;;5319702;26;20488;-60
2024/04/24 01:12:48;;;;;;;19.08;10.48;;;5.30;99.90;;;;;;5317259;26;20028;-59
2024/04/24 01:15:14;;;;;;;16.17;10.13;;;5.30;99.90;;;;;;5333704;26;20490;-60
2024/04/24 01:17:44;;;;;;;18.35;10.73;;;5.40;99.90;;;;;;5327373;26;20001;-61
2024/04/24 01:20:29;;;;;;;17.92;10.98;;;5.40;99.90;;;;;;5331464;26;20594;-61
2024/04/24 01:23:14;;;;;;;17.50;10.60;;;5.40;99.90;;;;;;5336330;26;20005;-61
2024/04/24 01:25:50;;;;;;;19.20;10.45;;;5.40;99.90;;;;;;5326573;26;20004;-60
2024/04/24 01:28:16;;;;;;;20.08;10.38;;;5.40;99.90;;;;;;5334541;26;20119;-60
2024/04/24 01:30:41;;;;;;;18.48;10.48;;;5.40;99.90;;;;;;5316050;26;20331;-60
2024/04/24 01:33:07;;;;;;;21.48;9.73;;;5.40;99.90;;;;;;5317013;26;20009;-60
2024/04/24 01:35:32;;;;;;;20.05;10.80;;;5.50;99.90;;;;;;5334405;26;20006;-60
2024/04/24 01:37:58;;;;;;;21.30;10.13;;;5.50;99.90;;;;;;5322327;26;20009;-60
2024/04/24 01:40:23;;;;;;;19.42;9.23;;;5.50;99.90;;;;;;5332732;26;20016;-59
2024/04/24 01:42:49;;;;;;;13.63;7.65;;;5.40;99.90;;;;;;5328535;26;20007;-60
2024/04/24 01:45:14;;;;;;;11.13;5.88;;;5.40;99.90;;;;;;5328849;26;20017;-60
2024/04/24 01:47:40;;;;;;;13.07;5.05;;;5.40;99.90;;;;;;5330886;26;20391;-58
2024/04/24 01:50:06;;;;;;;13.35;4.25;;;5.40;99.90;;;;;;5324612;26;20421;-60
2024/04/24 01:52:31;;;;;;;7.25;3.95;;;5.20;99.90;;;;;;5333200;26;20517;-57
2024/04/24 01:54:57;;;;;;;9.60;3.10;;;5.20;99.90;;;;;;5325427;26;20009;-58
2024/04/24 01:57:22;;;;;;;7.57;2.95;;;5.20;99.90;;;;;;5335629;26;20007;-59
2024/04/24 01:59:48;;;;;;;7.47;3.03;;;5.20;99.90;;;;;;5329316;26;20449;-60
2024/04/24 02:02:14;;;;;;;6.35;2.65;;;5.10;99.90;;;;;;5329231;26;20067;-59
2024/04/24 02:04:39;;;;;;;4.28;2.50;;;5.10;99.90;;;;;;5328632;26;20025;-60
2024/04/24 02:07:05;;;;;;;6.78;2.17;;;5.10;99.90;;;;;;5322259;26;20156;-60
2024/04/24 02:09:30;;;;;;;10.73;3.28;;;5.10;99.90;;;;;;5316933;26;20005;-60
2024/04/24 02:11:56;;;;;;;7.80;3.35;;;5.10;99.90;;;;;;5321131;26;20030;-60
2024/04/24 02:14:21;;;;;;;10.23;3.22;;;5.00;99.90;;;;;;5329564;26;20020;-61
2024/04/24 02:16:47;;;;;;;4.85;2.65;;;5.00;99.90;;;;;;5317037;26;20002;-61
2024/04/24 02:19:13;;;;;;;12.40;3.53;;;5.10;99.90;;;;;;5315327;26;20029;-60
2024/04/24 02:21:38;;;;;;;7.32;3.88;;;5.10;99.90;;;;;;5309597;26;19998;-60
2024/04/24 02:24:06;;;;;;;8.13;2.83;;;5.00;99.90;;;;;;5314980;26;20006;-60
2024/04/24 02:26:32;;;;;;;12.00;3.22;;;5.00;99.90;;;;;;5312685;26;20020;-59
2024/04/24 02:28:57;;;;;;;8.32;3.33;;;5.00;99.90;;;;;;5315255;26;20008;-59
2024/04/24 02:31:23;;;;;;;10.50;3.35;;;4.90;99.90;;;;;;5303163;26;20020;-57
2024/04/24 02:33:48;;;;;;;10.13;3.78;;;4.90;99.90;;;;;;5322248;26;20436;-60
2024/04/24 02:36:14;;;;;;;11.52;4.35;;;4.90;99.90;;;;;;5315692;26;20499;-60
2024/04/24 02:38:39;;;;;;;6.82;3.83;;;4.80;99.90;;;;;;5313827;26;20012;-59
2024/04/24 02:41:05;;;;;;;8.95;4.13;;;4.80;99.90;;;;;;5314538;26;20041;-59
2024/04/24 02:43:31;;;;;;;9.73;3.97;;;4.80;99.90;;;;;;5323487;26;20001;-60
2024/04/24 02:45:56;;;;;;;9.68;5.20;;;4.80;99.90;;;;;;5324580;26;20001;-59
2024/04/24 02:48:22;;;;;;;15.25;5.85;;;4.80;99.90;;;;;;5326355;26;20004;-59
2024/04/24 02:50:47;;;;;;;9.98;5.03;;;4.90;99.90;;;;;;5330160;26;20029;-60
2024/04/24 02:53:13;;;;;;;15.85;5.97;;;4.90;99.90;;;;;;5315045;26;20004;-59
2024/04/24 02:55:38;;;;;;;14.00;6.47;;;4.90;99.90;;;;;;5314350;26;20001;-59
2024/04/24 02:58:04;;;;;;;11.07;7.07;;;4.90;99.90;;;;;;5313889;26;20368;-60
2024/04/24 03:00:29;;;;;;;15.70;6.97;;;4.90;99.90;;;;;;5319816;26;20092;-59
2024/04/24 03:02:55;;;;;;;15.05;7.43;;;4.90;99.90;;;;;;5314587;26;19997;-60
2024/04/24 03:05:20;;;;;;;19.38;7.78;;;5.00;99.90;;;;;;5315268;26;20013;-60
2024/04/24 03:07:46;;;;;;;18.98;6.55;;;5.00;99.90;;;;;;5311458;26;20016;-59
2024/04/24 03:10:12;;;;;;;12.55;6.57;;;5.10;99.90;;;;;;5317179;26;20002;-60
2024/04/24 03:12:37;;;;;;;16.95;7.75;;;5.10;99.90;;;;;;5318239;26;20003;-60
2024/04/24 03:15:03;;;;;;;19.33;6.72;;;5.10;99.90;;;;;;5317688;26;19997;-60
2024/04/24 03:17:28;;;;;;;16.40;8.13;;;5.00;99.90;;;;;;5324336;26;19997;-59
2024/04/24 03:19:54;;;;;;;19.77;6.68;;;5.10;99.90;;;;;;5321468;26;20703;-60
2024/04/24 03:22:19;;;;;;;14.88;6.43;;;5.10;99.90;;;;;;5326299;26;20359;-60
2024/04/24 03:24:46;;;;;;;11.88;6.63;;;5.00;99.90;;;;;;5325517;26;20613;-59
2024/04/24 03:27:11;;;;;;;11.75;5.82;;;5.00;99.90;;;;;;5323194;26;20011;-60
2024/04/24 03:29:38;;;;;;;15.82;6.18;;;5.00;99.90;;;;;;5320143;26;20013;-59
2024/04/24 03:32:04;;;;;;;14.20;6.07;;;5.00;99.90;;;;;;5310349;26;20001;-60
2024/04/24 03:34:30;;;;;;;29.65;6.22;;;4.90;99.90;;;;;;5301211;26;20031;-58
2024/04/24 03:36:55;;;;;;;17.08;5.90;;;4.90;99.90;;;;;;5315152;26;20020;-60
2024/04/24 03:39:21;;;;;;;11.15;4.93;;;4.90;99.90;;;;;;5310466;26;20009;-60
2024/04/24 03:41:46;;;;;;;13.70;5.28;;;4.90;99.90;;;;;;5318504;26;20048;-60
2024/04/24 03:44:12;;;;;;;8.52;4.60;;;4.80;99.90;;;;;;5310627;26;20001;-60
2024/04/24 03:46:40;;;;;;;12.20;4.20;;;4.80;99.90;;;;;;5314942;26;20104;-60
2024/04/24 03:49:06;;;;;;;10.00;4.15;;;4.80;99.90;;;;;;5310234;26;20013;-60
2024/04/24 03:51:32;;;;;;;13.77;6.05;;;4.70;99.90;;;;;;5316868;26;20105;-60
2024/04/24 03:53:57;;;;;;;10.93;4.60;;;4.70;99.90;;;;;;5314626;26;20009;-59
2024/04/24 03:56:23;;;;;;;12.75;4.28;;;4.70;99.90;;;;;;5317159;26;20017;-59
2024/04/24 03:58:48;;;;;;;7.05;3.92;;;4.70;99.90;;;;;;5316046;26;20012;-61
2024/04/24 04:01:14;;;;;;;14.45;5.05;;;4.70;99.90;;;;;;5315382;26;19993;-59
2024/04/24 04:03:40;;;;;;;8.77;3.47;;;4.60;99.90;;;;;;5327769;26;20008;-60
2024/04/24 04:06:05;;;;;;;10.63;4.47;;;4.60;99.90;;;;;;5321293;26;20011;-61
2024/04/24 04:08:31;;;;;;;15.25;4.82;;;4.60;99.90;;;;;;5321175;26;20365;-60
2024/04/24 04:10:56;;;;;;;12.27;5.15;;;4.60;99.90;;;;;;5327221;26;20021;-59
2024/04/24 04:13:22;;;;;;;9.30;3.60;;;4.60;99.90;;;;;;5314582;26;20037;-59
2024/04/24 04:15:47;;;;;;;11.27;3.70;;;4.60;99.90;;;;;;5322464;26;20340;-60
2024/04/24 04:18:13;;;;;;;9.50;4.00;;;4.50;99.90;;;;;;5328907;26;20013;-60
2024/04/24 04:20:38;;;;;;;17.05;3.30;;;4.60;99.90;;;;;;5315293;26;19993;-61
2024/04/24 04:23:04;;;;;;;10.95;3.47;;;4.60;99.90;;;;;;5326581;26;20001;-61
2024/04/24 04:25:30;;;;;;;10.02;3.53;;;4.50;99.90;;;;;;5329195;26;20013;-60
2024/04/24 04:27:57;;;;;;;9.25;3.67;;;4.50;99.90;;;;;;5322022;26;20882;-60
2024/04/24 04:30:23;;;;;;;11.75;3.60;;;4.50;99.90;;;;;;5332517;26;20000;-59
2024/04/24 04:32:48;;;;;;;15.85;3.55;;;4.50;99.90;;;;;;5335125;26;20001;-61
2024/04/24 04:35:14;;;;;;;12.90;3.75;;;4.50;99.90;;;;;;5312351;26;20005;-60
2024/04/24 04:37:40;;;;;;;12.88;3.13;;;4.50;99.90;;;;;;5330223;26;20008;-60
2024/04/24 04:40:06;;;;;;;10.90;3.67;;;4.50;99.90;;;;;;5321049;26;20343;-60
2024/04/24 04:42:31;;;;;;;12.68;6.25;;;4.60;99.90;;;;;;5324537;26;20005;-60
2024/04/24 04:44:57;;;;;;;9.82;3.17;;;4.60;99.90;;;;;;5326552;26;20522;-60
2024/04/24 04:47:23;;;;;;;10.82;3.50;;;4.60;99.90;;;;;;5322541;26;20001;-60
2024/04/24 04:49:48;;;;;;;8.50;3.15;;;4.60;99.90;;;;;;5324371;26;20011;-60
2024/04/24 04:52:14;;;;;;;9.55;2.78;;;4.60;99.90;;;;;;5327259;26;19993;-60
2024/04/24 04:54:40;;;;;;;13.57;2.90;;;4.60;99.90;;;;;;5336069;26;20432;-61
2024/04/24 04:57:05;;;;;;;14.25;3.92;;;4.60;99.90;;;;;;5327634;26;19997;-61
2024/04/24 04:59:31;;;;;;;11.63;3.17;;;4.70;99.90;;;;;;5329693;26;20757;-60
2024/04/24 05:01:56;;;;;;;12.30;3.20;;;4.70;99.90;;;;;;5322575;26;20078;-60
2024/04/24 05:04:22;;;;;;;9.70;2.97;;;4.70;99.90;;;;;;5330901;26;20462;-60
2024/04/24 05:06:47;;;;;;;5.00;2.85;;;4.70;99.90;;;;;;5320653;26;20460;-61
2024/04/24 05:09:13;;;;;;;15.15;2.85;;;4.70;99.90;;;;;;5325469;26;20013;-60
2024/04/24 05:11:39;;;;;;;8.75;2.90;;;4.70;99.90;;;;;;5324934;26;20007;-60
2024/04/24 05:14:05;;;;;;;6.82;2.33;;;4.70;99.90;;;;;;5335909;26;20000;-60
2024/04/24 05:16:31;;;;;;;7.55;2.72;;;4.80;99.90;;;;;;5329454;26;20004;-59
2024/04/24 05:18:56;;;;;;;12.05;2.60;;;4.80;99.90;;;;;;5326162;26;20016;-61
2024/04/24 05:21:22;;;;;;;8.82;3.00;;;4.80;99.90;;;;;;5314534;26;20001;-60
2024/04/24 05:23:47;;;;;;;8.75;2.53;;;4.90;99.90;;;;;;5327023;26;20013;-59
2024/04/24 05:29:03;;;;;;;17.25;2.53;;;4.90;99.90;;;;;;5338639;26;20317;-60
2024/04/24 05:31:29;;;;;;;9.07;2.08;;;5.00;99.90;;;;;;5321021;26;20008;-63
2024/04/24 05:33:55;;;;;;;5.38;1.98;;;5.10;99.90;;;;;;5295594;26;21742;-60
2024/04/24 05:36:20;;;;;;;12.88;3.20;;;5.10;99.90;;;;;;5321490;26;20066;-60
2024/04/24 05:38:46;;;;;;;15.10;2.10;;;5.20;99.90;;;;;;5321309;26;20005;-60
2024/04/24 05:41:11;;;;;;;9.02;2.88;;;5.30;99.90;;;;;;5316639;26;20004;-60
2024/04/24 05:43:37;;;;;;;13.73;3.10;;;5.30;99.90;;;;;;5318522;26;20006;-60
2024/04/24 05:46:02;;;;;;;8.32;2.40;;;5.30;99.90;;;;;;5339174;26;20041;-60
2024/04/24 05:48:28;;;;;;;4.10;2.15;;;5.40;99.90;;;;;;5329949;26;20344;-61
2024/04/24 05:50:54;;;;;;;10.65;2.60;;;5.50;99.90;;;;;;5320237;26;20014;-59
2024/04/24 05:53:20;;;;;;;8.02;2.20;;;5.60;99.90;;;;;;5317895;26;20001;-61
2024/04/24 05:55:46;;;;;;;8.38;2.60;;;5.60;99.90;;;;;;5321315;26;20023;-60
2024/04/24 05:58:11;;;;;;;8.55;2.53;;;5.70;99.90;;;;;;5318117;26;20626;-60
2024/04/24 06:00:37;;;;;;;8.85;2.38;;;5.80;99.90;;;;;;5331053;26;20090;-61
2024/04/24 06:03:03;;;;;;;10.77;2.20;;;5.80;99.90;;;;;;5323052;26;20001;-60
2024/04/24 06:05:29;;;;;;;9.05;2.10;;;5.90;99.90;;;;;;5328787;26;20005;-60
2024/04/24 06:07:55;;;;;;;7.95;1.95;;;6.00;99.90;;;;;;5328430;26;20104;-60
2024/04/24 06:10:21;;;;;;;7.07;2.05;;;6.10;99.90;;;;;;5319004;26;20013;-60
2024/04/24 06:12:46;;;;;;;10.27;2.78;;;6.10;99.90;;;;;;5333873;26;19997;-60
2024/04/24 06:15:12;;;;;;;8.07;2.67;;;6.20;99.90;;;;;;5329772;26;20001;-60
2024/04/24 06:17:37;;;;;;;6.53;1.73;;;6.20;99.90;;;;;;5330957;26;19997;-60
2024/04/24 06:20:03;;;;;;;4.57;1.73;;;6.30;99.90;;;;;;5333331;26;20428;-60
2024/04/24 06:22:29;;;;;;;7.22;1.50;;;6.30;99.90;;;;;;5316635;26;20439;-60
2024/04/24 06:24:54;;;;;;;4.97;2.40;;;6.50;99.90;;;;;;5315227;26;20001;-62
2024/04/24 06:27:21;;;;;;;4.68;1.77;;;6.80;99.90;;;;;;5321221;26;20001;-62
2024/04/24 06:29:47;;;;;;;9.02;1.70;;;7.30;99.90;;;;;;5326978;26;20075;-61
2024/04/24 06:32:12;;;;;;;3.75;1.73;;;8.00;99.90;;;;;;5326580;26;20012;-62
2024/04/24 06:34:38;;;;;;;5.07;1.67;;;8.80;99.90;;;;;;5304443;26;20014;-62
2024/04/24 06:37:04;;;;;;;6.55;2.30;;;9.60;99.90;;;;;;5318542;26;20021;-62
2024/04/24 06:39:29;;;;;;;5.60;2.05;;;10.40;99.90;;;;;;5325796;26;20038;-62
2024/04/24 06:41:55;;;;;;;4.53;2.20;;;11.30;99.90;;;;;;5328753;26;20005;-62
2024/04/24 06:44:21;;;;;;;8.15;2.53;;;11.80;99.90;;;;;;5330050;26;19996;-63
2024/04/24 06:46:46;;;;;;;7.95;2.85;;;11.30;99.90;;;;;;5326101;26;20004;-62
2024/04/24 06:49:12;;;;;;;5.82;2.35;;;10.80;99.90;;;;;;5320837;26;20001;-62
2024/04/24 06:51:37;;;;;;;7.35;2.90;;;11.00;99.90;;;;;;5328312;26;20009;-62
2024/04/24 06:54:03;;;;;;;7.85;2.40;;;10.80;99.90;;;;;;5320988;26;19997;-62
2024/04/24 06:56:28;;;;;;;6.63;1.77;;;10.30;99.90;;;;;;5318798;26;20439;-62
2024/04/24 06:58:55;;;;;;;7.10;2.58;;;9.80;99.90;;;;;;5321753;26;20010;-62
2024/04/24 07:01:20;;;;;;;7.28;3.15;;;9.40;99.90;;;;;;5322741;26;20001;-61
2024/04/24 07:03:46;;;;;;;8.35;2.78;;;9.10;99.90;;;;;;5335640;26;20000;-62
2024/04/24 07:06:12;;;;;;;10.73;3.45;;;8.70;99.90;;;;;;5318957;26;20076;-61
2024/04/24 07:08:38;;;;;;;5.13;2.22;;;8.30;99.90;;;;;;5326205;26;20676;-61
2024/04/24 07:11:04;;;;;;;8.07;2.20;;;7.80;99.90;;;;;;5323224;26;20001;-61
2024/04/24 07:13:29;;;;;;;6.53;2.53;;;7.50;99.90;;;;;;5317392;26;20002;-62
2024/04/24 07:15:55;;;;;;;8.15;2.25;;;7.30;99.90;;;;;;5318688;26;20012;-60
2024/04/24 07:18:20;;;;;;;10.13;2.45;;;7.20;99.90;;;;;;5336461;26;20028;-61
2024/04/24 07:20:46;;;;;;;6.13;2.92;;;7.10;99.90;;;;;;5322260;26;20002;-61
2024/04/24 07:23:12;;;;;;;7.45;1.92;;;7.00;99.90;;;;;;5334760;26;20001;-61
2024/04/24 07:25:37;;;;;;;6.75;1.98;;;7.10;99.90;;;;;;5327066;26;20001;-61
2024/04/24 07:28:03;;;;;;;3.88;1.52;;;7.00;99.90;;;;;;5327107;26;20029;-62
2024/04/24 07:30:29;;;;;;;3.97;1.58;;;7.10;99.90;;;;;;5304590;26;20021;-61
2024/04/24 07:32:55;;;;;;;6.95;1.90;;;7.30;99.90;;;;;;5328487;26;19997;-61
2024/04/24 07:35:20;;;;;;;9.90;1.75;;;7.90;99.90;;;;;;5297713;26;20012;-62
2024/04/24 07:37:46;;;;;;;5.80;1.63;;;8.50;99.90;;;;;;5319696;26;20012;-61
2024/04/24 07:40:11;;;;;;;4.05;1.48;;;8.50;99.90;;;;;;5315383;26;19997;-62
2024/04/24 07:42:38;;;;;;;8.38;2.10;;;9.10;99.90;;;;;;5314397;26;20005;-61
2024/04/24 07:45:04;;;;;;;8.07;1.80;;;10.90;99.90;;;;;;5334743;26;20464;-61
2024/04/24 07:47:30;;;;;;;16.67;7.68;;;11.40;99.90;;;;;;5315629;26;20010;-63
2024/04/24 07:49:55;;;;;;;8.70;2.08;;;11.10;99.90;;;;;;5320739;26;20066;-62
2024/04/24 07:52:21;;;;;;;8.75;1.27;;;10.70;99.90;;;;;;5326529;26;20000;-61
2024/04/24 07:54:46;;;;;;;6.82;1.45;;;9.70;99.90;;;;;;5311926;26;20013;-62
2024/04/24 07:57:12;;;;;;;5.05;1.02;;;9.00;99.90;;;;;;5320867;26;20001;-61
2024/04/24 07:59:37;;;;;;;4.15;1.27;;;8.40;99.90;;;;;;5316424;26;20024;-62
2024/04/24 08:02:03;;;;;;;6.32;1.60;;;8.30;99.90;;;;;;5321416;26;20024;-61
2024/04/24 08:04:29;;;;;;;5.88;1.52;;;8.40;99.90;;;;;;5315572;26;20028;-61
2024/04/24 08:06:54;;;;;;;9.73;1.48;;;8.50;99.90;;;;;;5318431;26;19993;-60
2024/04/24 08:09:20;;;;;;;5.10;1.02;;;8.10;99.90;;;;;;5313103;26;20003;-60
2024/04/24 08:11:45;;;;;;;8.88;1.95;;;7.90;99.90;;;;;;5322250;26;20012;-60
2024/04/24 08:14:11;;;;;;;4.53;1.20;;;7.60;99.90;;;;;;5333675;26;20019;-60
2024/04/24 08:16:37;;;;;;;6.07;1.58;;;6.90;99.90;;;;;;5320484;26;19996;-60
2024/04/24 08:19:02;;;;;;;4.45;1.40;;;6.70;99.90;;;;;;5313665;26;20458;-61
2024/04/24 08:21:28;;;;;;;5.90;1.92;;;6.60;99.90;;;;;;5315265;26;20005;-59
2024/04/24 08:23:53;;;;;;;10.15;2.15;;;6.60;99.90;;;;;;5325629;26;20001;-59
2024/04/24 08:26:20;;;;;;;6.57;1.45;;;6.70;99.90;;;;;;5332900;26;20029;-60
2024/04/24 08:28:45;;;;;;;2.78;0.98;;;6.80;99.90;;;;;;5323607;26;20016;-61
2024/04/24 08:31:11;;;;;;;11.20;1.35;;;8.00;99.90;;;;;;5334345;26;20013;-61
2024/04/24 08:33:37;;;;;;;2.13;0.85;;;9.70;99.90;;;;;;5326298;26;20012;-61
2024/04/24 08:36:05;;;;;;;9.27;1.90;;;11.30;99.90;;;;;;5312130;26;20001;-61
2024/04/24 08:38:31;;;;;;;13.05;2.50;;;13.00;99.90;;;;;;5330734;26;20019;-63
2024/04/24 08:41:23;;;;;;;6.20;1.30;;;13.90;99.90;;;;;;5326631;26;20020;-61
2024/04/24 08:43:50;;;;;;;11.70;1.23;;;13.70;98.40;;;;;;5322794;26;20009;-62
2024/04/24 08:46:16;;;;;;;8.65;1.67;;;13.10;99.00;;;;;;5323216;26;20091;-61
2024/04/24 08:48:44;;;;;;;8.68;1.27;;;12.20;99.90;;;;;;5323943;26;20477;-61
2024/04/24 08:51:11;;;;;;;5.07;1.42;;;11.30;99.90;;;;;;5324824;26;20011;-61
2024/04/24 08:53:48;;;;;;;4.93;1.65;;;10.60;99.90;;;;;;5323555;26;20012;-61
2024/04/24 08:56:17;;;;;;;7.00;1.30;;;10.20;99.90;;;;;;5326258;26;20012;-61
2024/04/24 08:58:46;;;;;;;7.15;1.13;;;10.00;99.90;;;;;;5328332;26;20028;-61
2024/04/24 09:01:14;;;;;;;5.50;0.90;;;9.70;99.90;;;;;;5336996;26;19997;-60
2024/04/24 09:03:44;;;;;;;9.20;0.90;;;9.70;99.90;;;;;;5329642;26;20002;-60
2024/04/24 09:06:11;;;;;;;6.60;1.27;;;9.70;99.90;;;;;;5325240;26;20010;-62
2024/04/24 09:08:38;;;;;;;7.97;1.60;;;9.60;99.90;;;;;;5331932;26;20338;-62
2024/04/24 09:11:06;;;;;;;3.05;0.80;;;9.70;99.90;;;;;;5321671;26;20036;-62
2024/04/24 09:13:32;;;;;;;7.47;1.10;;;10.10;99.90;;;;;;5327619;26;20450;-63
2024/04/24 09:16:00;;;;;;;7.35;1.67;;;11.40;99.90;;;;;;5330231;26;20001;-61
2024/04/24 09:18:26;;;;;;;5.35;1.15;;;12.90;99.90;;;;;;5334045;26;19997;-61
2024/04/24 09:20:52;;;;;;;3.90;1.52;;;14.00;98.00;;;;;;5330283;26;20045;-61
2024/04/24 09:23:24;;;;;;;5.07;1.45;;;15.40;94.40;;;;;;5328013;26;20394;-61
2024/04/24 09:25:50;;;;;;;4.57;1.40;;;15.80;95.30;;;;;;5327350;26;19994;-61
2024/04/24 09:28:17;;;;;;;11.20;2.00;;;15.50;93.30;;;;;;5322644;26;20013;-61
2024/04/24 09:30:43;;;;;;;4.18;1.15;;;14.70;93.40;;;;;;5321882;26;19997;-66
2024/04/24 09:33:09;;;;;;;5.47;1.40;;;13.90;92.30;;;;;;5329560;26;20348;-60
2024/04/24 09:35:34;;;;;;;2.28;1.35;;;12.90;94.60;;;;;;5315288;26;20009;-59
2024/04/24 09:38:00;;;;;;;4.25;1.10;;;12.00;94.80;;;;;;5320388;26;20444;-63
2024/04/24 09:40:27;;;;;;;7.20;1.50;;;11.20;97.00;;;;;;5324860;26;20010;-63
2024/04/24 09:42:54;;;;;;;9.68;1.73;;;10.30;98.60;;;;;;5329277;26;20008;-68
2024/04/24 09:45:21;;;;;;;12.05;1.20;;;9.40;99.90;;;;;;5334954;26;20015;-62
2024/04/24 09:47:47;;;;;;;5.57;1.50;;;9.20;99.90;;;;;;5319248;26;20025;-63
2024/04/24 09:50:12;;;;;;;6.47;1.60;;;8.60;99.90;;;;;;5321867;26;20002;-62
2024/04/24 09:52:38;;;;;;;7.05;1.50;;;8.30;99.90;;;;;;5328396;26;20062;-62
2024/04/24 09:55:04;;;;;;;11.15;1.42;;;8.40;99.90;;;;;;5317883;26;20324;-62
2024/04/24 09:57:35;;;;;;;7.25;1.58;;;8.60;99.90;;;;;;5319541;26;20032;-62
2024/04/24 10:00:02;;;;;;;9.75;1.30;;;8.90;99.90;;;;;;5329521;26;20067;-62
2024/04/24 10:02:32;;;;;;;2.97;1.15;;;9.10;99.90;;;;;;5320086;26;20080;-60
2024/04/24 10:05:07;;;;;;;8.25;1.42;;;9.30;99.90;;;;;;5331084;26;20005;-62
2024/04/24 10:07:40;;;;;;;11.95;1.95;;;9.70;99.90;;;;;;5327260;26;20452;-62
2024/04/24 10:10:09;;;;;;;11.98;1.58;;;10.20;99.90;;;;;;5328759;26;20043;-60
2024/04/24 10:12:42;;;;;;;7.43;1.23;;;10.90;99.90;;;;;;5324350;26;20020;-63
2024/04/24 10:15:11;;;;;;;8.52;1.95;;;11.00;99.90;;;;;;5322946;26;20025;-62
2024/04/24 10:17:38;;;;;;;8.40;1.50;;;11.00;99.90;;;;;;5327234;26;19998;-62
2024/04/24 10:20:04;;;;;;;14.98;2.72;;;10.90;99.90;;;;;;5318696;26;20001;-62
2024/04/24 10:22:33;;;;;;;6.57;1.38;;;10.70;99.90;;;;;;5323712;26;20013;-62
2024/04/24 10:25:03;;;;;;;14.25;1.55;;;10.30;99.90;;;;;;5335534;26;19994;-62
2024/04/24 10:27:31;;;;;;;5.07;1.60;;;9.60;99.90;;;;;;5322280;26;20008;-61
2024/04/24 10:29:57;;;;;;;16.63;2.83;;;9.40;99.90;;;;;;5332679;26;20001;-62
2024/04/24 10:32:27;;;;;;;8.55;2.60;;;9.30;99.90;;;;;;5332460;26;20023;-62
2024/04/24 10:34:56;;;;;;;7.30;2.00;;;9.40;99.90;;;;;;5310981;26;20052;-62
2024/04/24 10:37:21;;;;;;;10.55;1.63;;;9.70;99.90;;;;;;5333570;26;20446;-62
2024/04/24 10:39:49;;;;;;;6.10;2.22;;;9.90;99.90;;;;;;5319379;26;20008;-61
2024/04/24 10:42:15;;;;;;;5.53;1.70;;;10.30;99.90;;;;;;5329749;26;20336;-61
2024/04/24 10:44:42;;;;;;;7.20;1.67;;;10.70;99.90;;;;;;5314541;26;20005;-62
2024/04/24 10:47:08;;;;;;;6.03;2.28;;;11.10;99.90;;;;;;5329383;26;20072;-62
2024/04/24 10:49:33;;;;;;;4.53;1.40;;;11.50;99.90;;;;;;5322056;26;20372;-61
2024/04/24 10:51:59;;;;;;;7.03;1.42;;;12.00;99.90;;;;;;5326969;26;20016;-62
2024/04/24 10:54:29;;;;;;;4.85;1.27;;;12.40;99.30;;;;;;5327733;26;20038;-63
2024/04/24 10:56:56;;;;;;;5.13;1.35;;;12.80;99.90;;;;;;5321810;26;20013;-62
2024/04/24 10:59:32;;;;;;;3.80;1.27;;;12.70;99.10;;;;;;5330268;26;20004;-62
2024/04/24 11:02:27;;;;;;;6.05;1.45;;;12.90;97.90;;;;;;5316996;26;20002;-62
2024/04/24 11:04:53;;;;;;;7.40;1.92;;;12.40;98.40;;;;;;5304468;26;20038;-62
2024/04/24 11:07:18;;;;;;;6.43;1.35;;;12.30;97.50;;;;;;5316545;26;20013;-62
2024/04/24 11:09:45;;;;;;;7.10;1.20;;;12.30;98.10;;;;;;5327510;26;20430;-62
2024/04/24 11:12:11;;;;;;;8.05;1.60;;;12.00;99.70;;;;;;5328071;26;20004;-62
2024/04/24 11:14:43;;;;;;;4.40;1.15;;;12.00;99.50;;;;;;5325218;26;20103;-62
2024/04/24 11:17:09;;;;;;;3.22;1.35;;;11.90;98.80;;;;;;5324732;26;20070;-61
2024/04/24 11:19:34;;;;;;;8.52;1.00;;;12.10;97.20;;;;;;5327375;26;19997;-62
2024/04/24 11:22:00;;;;;;;5.65;1.73;;;12.00;98.00;;;;;;5325617;26;19997;-61
2024/04/24 11:24:32;;;;;;;3.97;1.08;;;11.70;97.20;;;;;;5320972;26;20015;-62
2024/04/24 11:27:01;;;;;;;12.32;2.65;;;12.10;99.50;;;;;;5324470;26;20058;-63
2024/04/24 11:29:36;;;;;;;4.35;1.33;;;12.40;96.60;;;;;;5327870;26;19998;-61
2024/04/24 11:32:02;;;;;;;6.10;1.17;;;12.40;96.00;;;;;;5324761;26;20005;-63
2024/04/24 11:34:27;;;;;;;3.83;1.30;;;12.40;96.90;;;;;;5326526;26;20054;-61
2024/04/24 11:36:53;;;;;;;2.70;1.50;;;12.30;96.10;;;;;;5312619;26;20000;-61
2024/04/24 11:39:22;;;;;;;4.93;1.08;;;12.30;96.60;;;;;;5325139;26;20024;-62
2024/04/24 11:41:49;;;;;;;5.60;1.33;;;12.10;96.40;;;;;;5322228;26;20013;-62
2024/04/24 11:44:15;;;;;;;5.22;1.40;;;12.00;97.00;;;;;;5314336;26;20001;-61
2024/04/24 11:46:41;;;;;;;5.00;1.42;;;11.30;97.80;;;;;;5301646;26;20045;-61
2024/04/24 11:49:06;;;;;;;7.10;2.65;;;10.80;99.30;;;;;;5318132;26;19997;-62
2024/04/24 11:51:37;;;;;;;6.95;2.35;;;10.40;99.90;;;;;;5323941;26;21727;-62
2024/04/24 11:54:02;;;;;;;6.60;2.65;;;9.80;99.90;;;;;;5314838;26;19997;-61
2024/04/24 11:56:45;;;;;;;9.30;2.72;;;9.60;99.90;;;;;;5321525;26;20020;-61
2024/04/24 11:59:14;;;;;;;6.45;2.70;;;9.60;99.90;;;;;;5352103;26;19997;-62
2024/04/24 12:01:40;;;;;;;11.25;2.05;;;10.00;99.90;;;;;;5335711;26;20009;-61
2024/04/24 12:04:07;;;;;;;11.98;2.40;;;10.20;99.90;;;;;;5322460;26;20113;-62
2024/04/24 12:06:38;;;;;;;4.28;1.13;;;10.40;99.90;;;;;;5321780;26;20348;-62
2024/04/24 12:09:04;;;;;;;8.20;1.42;;;10.40;99.90;;;;;;5322118;26;20022;-62
2024/04/24 12:11:42;;;;;;;3.97;0.95;;;10.50;99.90;;;;;;5331512;26;20017;-61
2024/04/24 12:14:14;;;;;;;7.30;1.48;;;10.80;99.90;;;;;;5313910;26;20049;-62
2024/04/24 12:16:41;;;;;;;3.45;0.98;;;10.20;99.90;;;;;;5325317;26;20029;-62
2024/04/24 12:19:07;;;;;;;4.95;1.60;;;10.40;99.90;;;;;;5337590;26;20008;-65
2024/04/24 12:21:33;;;;;;;8.60;1.38;;;10.40;99.90;;;;;;5341397;26;20094;-60
2024/04/24 12:23:58;;;;;;;5.65;1.25;;;10.20;99.90;;;;;;5336103;26;20056;-61
2024/04/24 12:26:26;;;;;;;5.78;1.33;;;9.90;99.90;;;;;;5338595;26;20036;-62
2024/04/24 12:28:52;;;;;;;1.05;0.60;;;9.80;99.90;;;;;;5336831;26;20390;-62
2024/04/24 12:31:18;;;;;;;12.57;1.30;;;9.90;99.90;;;;;;5333183;26;20007;-62
2024/04/24 12:33:43;;;;;;;3.08;0.90;;;9.90;99.90;;;;;;5335311;26;20037;-59
2024/04/24 12:36:09;;;;;;;4.53;1.30;;;10.00;99.90;;;;;;5322138;26;20001;-62
2024/04/24 12:38:34;;;;;;;1.85;1.17;;;10.20;99.90;;;;;;5332795;26;20002;-62
2024/04/24 12:41:00;;;;;;;4.18;1.25;;;10.30;99.90;;;;;;5323337;26;20451;-62
2024/04/24 12:43:26;;;;;;;6.75;1.60;;;10.40;99.90;;;;;;5337118;26;20015;-63
2024/04/24 12:45:51;;;;;;;4.20;1.30;;;10.30;99.90;;;;;;5330971;26;20013;-62
2024/04/24 12:48:17;;;;;;;5.63;1.50;;;10.60;99.90;;;;;;5334560;26;20023;-62
2024/04/24 12:50:42;;;;;;;7.40;1.80;;;10.70;99.90;;;;;;5325699;26;20005;-61